Aérodrome :
LOGIN :

S'inscrire | Disclaimer

   EN    FR    IT 

 










Légende :    VFR   VFR Marginal   IFR   IFR Intensif   IFR Très Intensif
Visi : 
Plafond : 
>= 8 km
>= 3000ft
5 à 8 km
1000 à 3000 ft
1500m à 5 km
500 à 1000 ft
800 à 1500m
200 à 500 ft
< 800m
< 200 ft
Symboles :   Orages  Brouillard  Fortes neiges  Fortes précipitations  Vent > 20 kt
SIGMETs :   Divers  Orages  Givrage  Turbulence  Onde Orograph.  Cendres Volcan.







- Altitude de l'aérodrome : 1742 ft
- Code IATA : SOF


LBSF - Sofia Int.

DERNIER METAR :
  • 212330Z 17004KT CAVOK 07/M01 Q1020 NOSIG

METARs EXPIRÉS :
  • 212300Z 17005KT 140V200 CAVOK 06/M01 Q1021 NOSIG
  • 212230Z 14005KT 130V240 CAVOK 06/M01 Q1021 NOSIG
  • 212200Z 13004KT CAVOK 06/M01 Q1021 NOSIG
  • 212130Z 14003KT 100V190 CAVOK 07/M01 Q1021 NOSIG
  • 212100Z 10005KT 080V150 CAVOK 07/M01 Q1021 NOSIG

TAF TAF LBSF
Valide du 22 à 00h jusqu'au 23 à 00h UTC


212300Z 2200/2224 VRB04KT CAVOK
BECMG 2211/2213 10012KT 9999 SCT050
TEMPO 2213/2216 SHRA FEW030CB BKN040
BECMG 2220/2222 5000 RA SCT020 OVC040
Pas de NOTAMs connus pour ce terrain.



MET'MAP, la Météo Aéronautique d'un coup d'oeil ! - Copyright ORBIFLY Décembre 2007 - Disclaimer

ORBIFLY MET'MAP TEAM :

Programmation & Développement : Alexandra Zaïnal
Conception & Développement : Baudouin d'Aumeries
Co-Programmation & Développement : Marc-Olivier Méhu
Soutien technique & logistique : Manuel Goepfert

Contact : metmap@orbifly.com




SOURCES & CREDITS :

   NOAA